createdAt,value
2018-09-06T00:00:12.957Z,28.67
2018-09-06T00:02:41.101Z,30.13
2018-09-06T00:05:09.230Z,29.50
2018-09-06T00:07:37.446Z,30.30
2018-09-06T00:10:05.624Z,34.90
2018-09-06T00:12:33.786Z,39.00
2018-09-06T00:15:01.957Z,34.63
2018-09-06T00:17:30.200Z,35.17
2018-09-06T00:19:58.363Z,33.17
2018-09-06T00:22:26.470Z,31.27
2018-09-06T00:24:54.609Z,29.73
2018-09-06T00:27:22.885Z,30.13
2018-09-06T00:29:51.066Z,30.87
2018-09-06T00:32:19.218Z,33.13
2018-09-06T00:34:47.346Z,32.50
2018-09-06T00:37:15.527Z,33.03
2018-09-06T00:39:43.725Z,33.70
2018-09-06T00:42:11.935Z,35.10
2018-09-06T00:44:40.156Z,33.63
2018-09-06T00:47:08.348Z,31.97
2018-09-06T00:49:36.500Z,36.20
2018-09-06T00:52:04.613Z,36.37
2018-09-06T00:54:32.743Z,39.83
2018-09-06T00:57:00.847Z,39.03
2018-09-06T00:59:29.013Z,37.97
2018-09-06T01:01:57.183Z,36.10
2018-09-06T01:04:25.326Z,34.93
2018-09-06T01:06:53.795Z,37.30
2018-09-06T01:09:21.994Z,34.87
2018-09-06T01:11:50.103Z,33.13
2018-09-06T01:14:18.231Z,31.10
2018-09-06T01:16:46.363Z,30.33
2018-09-06T01:19:14.567Z,29.50
2018-09-06T01:21:42.839Z,29.00
2018-09-06T01:24:10.949Z,28.30
2018-09-06T01:26:39.053Z,30.00
2018-09-06T01:29:07.189Z,28.57
2018-09-06T01:31:35.381Z,27.87
2018-09-06T01:34:03.508Z,33.60
2018-09-06T01:36:36.917Z,32.33
2018-09-06T01:39:07.027Z,29.77
2018-09-06T01:41:35.202Z,29.10
2018-09-06T01:44:03.618Z,26.80
2018-09-06T01:46:31.791Z,28.00
2018-09-06T01:48:59.977Z,26.93
2018-09-06T01:51:28.159Z,30.23
2018-09-06T01:53:56.345Z,27.47
2018-09-06T01:56:24.685Z,26.60
2018-09-06T01:58:52.809Z,26.23
2018-09-06T02:01:20.929Z,28.90
2018-09-06T02:03:49.106Z,26.53
2018-09-06T02:06:17.305Z,29.60
2018-09-06T02:08:45.479Z,30.17
2018-09-06T02:11:13.608Z,29.77
2018-09-06T02:13:41.763Z,27.90
2018-09-06T02:16:10.848Z,30.20
2018-09-06T02:18:38.993Z,29.57
2018-09-06T02:21:07.105Z,30.20
2018-09-06T02:23:35.275Z,28.13
2018-09-06T02:26:03.399Z,29.63
2018-09-06T02:28:31.558Z,29.23
2018-09-06T02:30:59.721Z,29.70
2018-09-06T02:33:27.872Z,30.90
2018-09-06T02:35:56.076Z,27.90
2018-09-06T02:38:24.313Z,27.53
2018-09-06T02:40:52.464Z,25.93
2018-09-06T02:43:20.571Z,29.07
2018-09-06T02:45:48.675Z,29.17
2018-09-06T02:48:16.814Z,30.93
2018-09-06T02:50:50.347Z,28.00
2018-09-06T02:53:18.503Z,30.00
2018-09-06T02:55:46.834Z,29.07
2018-09-06T02:58:15.065Z,27.40
2018-09-06T03:00:43.319Z,28.97
2018-09-06T03:03:11.483Z,25.77
2018-09-06T03:05:39.670Z,27.50
2018-09-06T03:08:07.857Z,28.57
2018-09-06T03:10:42.037Z,28.63
2018-09-06T03:13:10.246Z,27.97
2018-09-06T03:15:38.403Z,31.33
2018-09-06T03:18:06.593Z,33.20
2018-09-06T03:20:34.874Z,34.10
2018-09-06T03:23:03.925Z,31.50
2018-09-06T03:25:32.147Z,29.00
2018-09-06T03:28:00.275Z,32.77
2018-09-06T03:30:28.421Z,32.00
2018-09-06T03:32:56.557Z,30.03
2018-09-06T03:35:24.765Z,30.47
2018-09-06T03:37:52.861Z,30.47
2018-09-06T03:40:21.049Z,31.30
2018-09-06T03:42:49.168Z,29.10
2018-09-06T03:45:17.409Z,28.87
2018-09-06T03:47:45.676Z,28.37
2018-09-06T03:50:14.018Z,28.73
2018-09-06T03:52:42.121Z,28.83
2018-09-06T03:55:10.342Z,28.63
2018-09-06T03:57:38.570Z,28.37
2018-09-06T04:00:06.730Z,38.73
2018-09-06T04:02:34.836Z,36.40
2018-09-06T04:05:03.014Z,33.97
2018-09-06T04:07:31.167Z,38.07
2018-09-06T04:09:59.307Z,37.97
2018-09-06T04:12:27.452Z,37.70
2018-09-06T04:14:55.606Z,34.03
2018-09-06T04:17:23.866Z,38.97
2018-09-06T04:19:52.040Z,33.83
2018-09-06T04:22:20.183Z,37.60
2018-09-06T04:24:48.326Z,39.07
2018-09-06T04:27:16.439Z,34.80
2018-09-06T04:29:44.549Z,32.90
2018-09-06T04:32:12.775Z,31.13
2018-09-06T04:34:40.928Z,32.83
2018-09-06T04:37:09.040Z,36.87
2018-09-06T04:39:37.372Z,30.20
2018-09-06T04:42:05.546Z,31.93
2018-09-06T04:44:33.761Z,29.83
2018-09-06T04:47:02.034Z,33.07
2018-09-06T04:49:30.210Z,36.43
2018-09-06T04:51:58.382Z,36.53
2018-09-06T04:54:26.630Z,35.83
2018-09-06T04:56:54.804Z,32.97
2018-09-06T04:59:23.746Z,34.53
2018-09-06T05:01:51.998Z,34.87
2018-09-06T05:04:20.372Z,36.17
2018-09-06T05:06:48.540Z,33.90
2018-09-06T05:09:16.700Z,33.23
2018-09-06T05:11:44.909Z,34.73
2018-09-06T05:14:13.178Z,35.40
2018-09-06T05:16:41.426Z,36.47
2018-09-06T05:19:10.357Z,29.50
2018-09-06T05:21:38.726Z,29.00
2018-09-06T05:24:06.930Z,29.73
2018-09-06T05:26:35.226Z,28.77
2018-09-06T05:29:03.594Z,30.47
2018-09-06T05:31:31.944Z,32.63
2018-09-06T05:34:00.262Z,30.37
2018-09-06T05:36:28.890Z,32.10
2018-09-06T05:38:57.716Z,30.03
2018-09-06T05:41:25.895Z,28.97
2018-09-06T05:43:54.022Z,30.50
2018-09-06T05:46:22.423Z,29.60
2018-09-06T05:48:50.653Z,31.23
2018-09-06T05:51:18.871Z,29.03
2018-09-06T05:53:47.112Z,26.60
2018-09-06T05:56:15.285Z,24.63
2018-09-06T05:58:43.436Z,23.53
2018-09-06T06:01:11.586Z,22.27
2018-09-06T06:03:39.782Z,21.27
2018-09-06T06:06:07.951Z,21.10
2018-09-06T06:08:38.611Z,20.03
2018-09-06T06:11:06.788Z,20.70
2018-09-06T06:13:34.970Z,19.93
2018-09-06T06:16:03.189Z,19.83
2018-09-06T06:18:31.293Z,19.63
2018-09-06T06:20:59.532Z,20.23
2018-09-06T06:23:27.681Z,20.27
2018-09-06T06:25:55.881Z,19.10
2018-09-06T06:28:24.024Z,19.30
2018-09-06T06:30:52.187Z,18.30
2018-09-06T06:33:20.370Z,18.20
2018-09-06T06:35:48.577Z,17.97
2018-09-06T06:38:16.749Z,17.30
2018-09-06T06:40:44.896Z,18.73
2018-09-06T06:43:13.069Z,19.03
2018-09-06T06:45:41.239Z,17.70
2018-09-06T06:48:09.487Z,18.13
2018-09-06T06:50:37.649Z,18.07
2018-09-06T06:53:05.836Z,17.57
2018-09-06T06:55:33.957Z,18.47
2018-09-06T06:58:02.214Z,17.40
2018-09-06T07:00:34.643Z,17.30
2018-09-06T07:03:02.821Z,18.10
2018-09-06T07:05:31.041Z,17.13
2018-09-06T07:07:59.142Z,17.00
2018-09-06T07:10:27.300Z,19.63
2018-09-06T07:12:55.389Z,17.97
2018-09-06T07:15:23.598Z,19.23
2018-09-06T07:17:51.791Z,16.67
2018-09-06T07:20:19.875Z,16.73
2018-09-06T07:22:48.059Z,16.07
2018-09-06T07:25:16.270Z,16.57
2018-09-06T07:27:44.451Z,18.43
2018-09-06T07:30:12.685Z,19.33
2018-09-06T07:32:40.863Z,20.53
2018-09-06T07:35:09.066Z,20.20
2018-09-06T07:37:37.193Z,20.20
2018-09-06T07:40:05.429Z,18.47
2018-09-06T07:42:33.607Z,18.73
2018-09-06T07:45:01.975Z,18.87
2018-09-06T07:47:30.261Z,18.93
2018-09-06T07:49:58.797Z,19.92
2018-09-06T07:52:26.969Z,19.40
2018-09-06T07:54:55.048Z,18.07
2018-09-06T07:57:23.166Z,18.48
2018-09-06T07:59:51.501Z,20.55
2018-09-06T08:02:19.720Z,19.85
2018-09-06T08:04:47.904Z,17.07
2018-09-06T08:07:16.104Z,16.87
2018-09-06T08:09:44.250Z,17.50
2018-09-06T08:12:12.484Z,15.72
2018-09-06T08:14:40.681Z,18.52
2018-09-06T08:17:08.906Z,18.40
2018-09-06T08:19:37.083Z,18.85
2018-09-06T08:22:05.231Z,19.55
2018-09-06T08:24:33.365Z,17.80
2018-09-06T08:27:01.592Z,18.70
2018-09-06T08:29:29.983Z,17.30
2018-09-06T08:31:58.295Z,21.23
2018-09-06T08:34:26.957Z,22.03
2018-09-06T08:36:55.240Z,21.07
2018-09-06T08:39:23.389Z,18.93
2018-09-06T08:41:52.119Z,19.83
2018-09-06T08:44:20.225Z,19.20
2018-09-06T08:46:48.427Z,19.23
2018-09-06T08:49:16.686Z,20.73
2018-09-06T08:51:44.883Z,21.33
2018-09-06T08:54:13.069Z,19.93
2018-09-06T08:56:41.275Z,18.20
2018-09-06T08:59:09.441Z,18.53
2018-09-06T09:01:41.033Z,18.87
2018-09-06T09:04:09.583Z,21.97
2018-09-06T09:06:38.979Z,21.00
2018-09-06T09:09:08.120Z,22.50
2018-09-06T09:11:36.470Z,22.40
2018-09-06T09:14:04.713Z,22.40
2018-09-06T09:16:32.904Z,22.60
2018-09-06T09:19:01.042Z,21.47
2018-09-06T09:21:29.234Z,20.63
2018-09-06T09:23:57.293Z,21.50
2018-09-06T09:26:25.615Z,20.50
2018-09-06T09:28:54.027Z,18.57
2018-09-06T09:31:22.208Z,20.30
2018-09-06T09:33:50.438Z,19.73
2018-09-06T09:36:18.682Z,20.50
2018-09-06T09:38:46.857Z,20.30
2018-09-06T09:41:15.232Z,19.50
2018-09-06T09:43:43.380Z,20.70
2018-09-06T09:48:39.060Z,17.67
2018-09-06T09:51:07.217Z,19.30
2018-09-06T09:53:35.400Z,19.23
2018-09-06T09:56:03.659Z,19.43
2018-09-06T09:58:31.839Z,19.13
2018-09-06T10:01:00.083Z,18.33
2018-09-06T10:03:33.776Z,18.10
2018-09-06T10:06:07.426Z,16.60
2018-09-06T10:08:40.885Z,18.27
2018-09-06T10:11:09.064Z,17.93
2018-09-06T10:13:37.326Z,15.93
2018-09-06T10:16:05.602Z,15.27
2018-09-06T10:18:33.866Z,18.03
2018-09-06T10:21:02.776Z,18.20
2018-09-06T10:23:30.979Z,16.90
2018-09-06T10:25:59.195Z,17.27
2018-09-06T10:28:27.357Z,17.00
2018-09-06T10:30:55.528Z,15.40
2018-09-06T10:33:23.857Z,16.47
2018-09-06T10:35:52.174Z,16.50
2018-09-06T10:38:20.404Z,15.90
2018-09-06T10:40:48.547Z,14.07
2018-09-06T10:43:16.717Z,15.60
2018-09-06T10:45:45.078Z,14.30
2018-09-06T10:48:13.229Z,14.90
2018-09-06T10:50:41.362Z,15.23
2018-09-06T10:53:09.602Z,15.23
2018-09-06T10:55:37.754Z,15.10
2018-09-06T10:58:06.175Z,15.03
2018-09-06T11:00:34.376Z,14.97
2018-09-06T11:03:02.696Z,14.80
2018-09-06T11:05:30.828Z,14.43
2018-09-06T11:07:59.002Z,12.07
2018-09-06T11:10:27.143Z,10.90
2018-09-06T11:12:55.293Z,10.90
2018-09-06T11:15:23.522Z,11.30
2018-09-06T11:17:51.826Z,11.10
2018-09-06T11:20:20.105Z,9.97
2018-09-06T11:22:48.331Z,9.67
2018-09-06T11:25:16.454Z,10.93
2018-09-06T11:27:44.651Z,10.47
2018-09-06T11:30:12.788Z,10.70
2018-09-06T11:32:40.976Z,10.50
2018-09-06T11:35:09.094Z,11.17
2018-09-06T11:37:37.289Z,10.23
2018-09-06T11:40:05.767Z,10.53
2018-09-06T11:42:33.971Z,10.30
2018-09-06T11:45:02.200Z,11.30
2018-09-06T11:47:30.494Z,11.10
2018-09-06T11:49:58.647Z,10.07
2018-09-06T11:52:26.971Z,9.73
2018-09-06T11:54:55.115Z,10.13
2018-09-06T11:57:23.303Z,10.40
2018-09-06T11:59:51.561Z,10.97
2018-09-06T12:02:19.819Z,10.60
2018-09-06T12:04:47.942Z,9.87
2018-09-06T12:07:16.273Z,9.00
2018-09-06T12:09:44.460Z,9.10
2018-09-06T12:12:12.629Z,8.90
2018-09-06T12:14:40.847Z,8.97
2018-09-06T12:17:09.049Z,9.13
2018-09-06T12:19:37.319Z,8.67
2018-09-06T12:22:05.428Z,10.13
2018-09-06T12:24:33.808Z,8.80
2018-09-06T12:27:01.994Z,9.17
2018-09-06T12:29:30.239Z,9.63
2018-09-06T12:31:58.371Z,8.93
2018-09-06T12:34:26.952Z,9.40
2018-09-06T12:36:55.117Z,9.77
2018-09-06T12:39:23.261Z,9.20
2018-09-06T12:41:51.422Z,9.30
2018-09-06T12:44:19.758Z,9.10
2018-09-06T12:46:47.962Z,9.40
2018-09-06T12:49:16.194Z,9.30
2018-09-06T12:51:44.360Z,9.23
2018-09-06T12:54:12.516Z,9.97
2018-09-06T12:56:40.858Z,9.07
2018-09-06T12:59:08.966Z,9.57
2018-09-06T13:01:37.149Z,9.17
2018-09-06T13:04:05.329Z,9.20
2018-09-06T13:06:33.628Z,9.60
2018-09-06T13:09:01.862Z,9.57
2018-09-06T13:11:30.039Z,9.20
2018-09-06T13:13:58.244Z,9.10
2018-09-06T13:16:26.404Z,10.00
2018-09-06T13:18:54.661Z,9.00
2018-09-06T13:21:22.830Z,9.27
2018-09-06T13:23:51.081Z,9.13
2018-09-06T13:26:19.268Z,10.20
2018-09-06T13:28:47.520Z,9.30
2018-09-06T13:31:15.759Z,9.57
2018-09-06T13:33:43.938Z,9.67
2018-09-06T13:36:12.095Z,9.13
2018-09-06T13:38:40.210Z,8.67
2018-09-06T13:41:08.715Z,9.47
2018-09-06T13:43:36.905Z,9.20
2018-09-06T13:46:05.086Z,8.97
2018-09-06T13:48:33.469Z,9.23
2018-09-06T13:51:01.639Z,9.57
2018-09-06T13:53:29.883Z,10.00
2018-09-06T13:55:58.178Z,9.20
2018-09-06T13:58:26.495Z,9.60
2018-09-06T14:00:54.665Z,9.57
2018-09-06T14:03:22.978Z,8.60
2018-09-06T14:05:51.267Z,8.83
2018-09-06T14:08:19.461Z,9.03
2018-09-06T14:10:47.685Z,9.20
2018-09-06T14:13:15.975Z,9.13
2018-09-06T14:15:44.175Z,8.60
2018-09-06T14:18:12.325Z,8.53
2018-09-06T14:20:40.527Z,8.33
2018-09-06T14:23:08.677Z,8.50
2018-09-06T14:25:36.833Z,9.03
2018-09-06T14:28:05.063Z,9.07
2018-09-06T14:30:33.500Z,8.97
2018-09-06T14:33:01.706Z,9.00
2018-09-06T14:35:29.884Z,9.70
2018-09-06T14:37:58.077Z,9.17
2018-09-06T14:40:26.409Z,8.60
2018-09-06T14:42:54.566Z,9.40
2018-09-06T14:45:22.765Z,9.30
2018-09-06T14:47:50.935Z,8.80
2018-09-06T14:50:19.125Z,8.97
2018-09-06T14:52:47.306Z,8.53
2018-09-06T14:55:15.425Z,8.13
2018-09-06T14:57:43.615Z,7.47
2018-09-06T15:00:12.266Z,9.13
2018-09-06T15:02:40.469Z,7.60
2018-09-06T15:05:08.614Z,8.87
2018-09-06T15:07:36.743Z,9.87
2018-09-06T15:10:06.094Z,9.20
2018-09-06T15:12:34.304Z,9.37
2018-09-06T15:15:02.439Z,8.73
2018-09-06T15:17:30.579Z,8.87
2018-09-06T15:19:58.733Z,8.93
2018-09-06T15:22:26.944Z,9.13
2018-09-06T15:24:55.159Z,8.97
2018-09-06T15:27:23.414Z,9.07
2018-09-06T15:29:51.584Z,9.03
2018-09-06T15:32:19.771Z,9.07
2018-09-06T15:34:47.916Z,8.83
2018-09-06T15:37:16.134Z,8.87
2018-09-06T15:39:44.238Z,8.53
2018-09-06T15:42:12.321Z,7.97
2018-09-06T15:44:40.503Z,8.40
2018-09-06T15:47:08.665Z,7.77
2018-09-06T15:49:36.872Z,8.17
2018-09-06T15:52:05.012Z,9.10
2018-09-06T15:54:33.182Z,8.80
2018-09-06T15:57:01.360Z,8.73
2018-09-06T15:59:29.651Z,8.73
2018-09-06T16:01:57.802Z,8.50
2018-09-06T16:04:26.022Z,8.70
2018-09-06T16:06:54.173Z,7.97
2018-09-06T16:09:22.892Z,8.43
2018-09-06T16:11:51.021Z,8.17
2018-09-06T16:14:19.260Z,8.33
2018-09-06T16:16:47.369Z,7.63
2018-09-06T16:19:15.541Z,8.37
2018-09-06T16:21:43.685Z,7.53
2018-09-06T16:24:11.924Z,7.83
2018-09-06T16:26:40.826Z,7.47
2018-09-06T16:29:08.968Z,8.33
2018-09-06T16:31:37.165Z,7.17
2018-09-06T16:34:05.573Z,7.70
2018-09-06T16:36:33.713Z,7.43
2018-09-06T16:39:02.150Z,7.53
2018-09-06T16:41:30.445Z,7.60
2018-09-06T16:43:58.820Z,6.63
2018-09-06T16:46:26.987Z,7.90
2018-09-06T16:48:55.225Z,7.13
2018-09-06T16:51:23.403Z,6.57
2018-09-06T16:53:51.559Z,7.40
2018-09-06T16:56:20.346Z,7.20
2018-09-06T16:58:48.557Z,7.67
2018-09-06T17:01:16.756Z,7.73
2018-09-06T17:03:45.227Z,8.00
2018-09-06T17:06:14.148Z,8.53
2018-09-06T17:08:42.302Z,8.37
2018-09-06T17:11:10.513Z,7.93
2018-09-06T17:13:38.751Z,8.00
2018-09-06T17:16:06.957Z,8.93
2018-09-06T17:18:35.093Z,8.43
2018-09-06T17:21:03.168Z,8.70
2018-09-06T17:23:31.474Z,8.77
2018-09-06T17:25:59.781Z,8.57
2018-09-06T17:28:28.060Z,8.63
2018-09-06T17:30:56.239Z,8.87
2018-09-06T17:33:24.403Z,9.40
2018-09-06T17:35:52.603Z,8.90
2018-09-06T17:38:21.758Z,8.90
2018-09-06T17:40:49.966Z,8.40
2018-09-06T17:43:18.207Z,9.33
2018-09-06T17:45:46.513Z,9.70
2018-09-06T17:48:14.685Z,9.20
2018-09-06T17:50:42.901Z,8.97
2018-09-06T17:53:11.157Z,9.17
2018-09-06T17:55:39.290Z,9.57
2018-09-06T17:58:07.601Z,8.93
2018-09-06T18:00:40.203Z,10.00
2018-09-06T18:03:08.361Z,9.77
2018-09-06T18:05:36.535Z,9.70
2018-09-06T18:08:04.820Z,9.70
2018-09-06T18:10:33.087Z,9.13
2018-09-06T18:13:01.391Z,9.47
2018-09-06T18:15:29.554Z,8.67
2018-09-06T18:17:57.759Z,9.67
2018-09-06T18:20:25.911Z,9.83
2018-09-06T18:22:54.071Z,9.07
2018-09-06T18:25:22.235Z,10.03
2018-09-06T18:27:50.917Z,10.50
2018-09-06T18:30:19.211Z,9.23
2018-09-06T18:32:47.406Z,9.53
2018-09-06T18:35:15.597Z,10.30
2018-09-06T18:37:43.768Z,9.77
2018-09-06T18:40:11.933Z,10.50
2018-09-06T18:42:40.152Z,8.67
2018-09-06T18:45:08.381Z,9.73
2018-09-06T18:47:36.623Z,9.93
2018-09-06T18:50:04.851Z,9.30
2018-09-06T18:52:33.488Z,9.73
2018-09-06T18:55:01.661Z,10.03
2018-09-06T18:57:29.895Z,9.50
2018-09-06T18:59:58.381Z,9.47
2018-09-06T19:02:26.559Z,8.30
2018-09-06T19:04:54.811Z,8.60
2018-09-06T19:07:22.959Z,9.30
2018-09-06T19:09:52.301Z,9.50
2018-09-06T19:12:20.456Z,9.03
2018-09-06T19:14:48.571Z,9.77
2018-09-06T19:17:16.714Z,9.43
2018-09-06T19:19:44.912Z,10.00
2018-09-06T19:22:13.166Z,9.83
2018-09-06T19:24:41.439Z,9.03
2018-09-06T19:27:09.607Z,9.93
2018-09-06T19:29:37.831Z,10.47
2018-09-06T19:32:06.105Z,10.10
2018-09-06T19:34:34.240Z,10.93
2018-09-06T19:37:02.370Z,10.47
2018-09-06T19:39:30.590Z,10.30
2018-09-06T19:41:58.838Z,10.47
2018-09-06T19:44:27.066Z,10.90
2018-09-06T19:46:55.362Z,11.07
2018-09-06T19:49:23.646Z,10.47
2018-09-06T19:51:51.873Z,10.47
2018-09-06T19:54:20.145Z,11.20
2018-09-06T19:56:48.601Z,10.47
2018-09-06T19:59:17.014Z,11.07
2018-09-06T20:01:45.377Z,11.00
2018-09-06T20:04:13.735Z,11.00
2018-09-06T20:06:42.137Z,11.70
2018-09-06T20:09:10.469Z,10.17
2018-09-06T20:11:38.669Z,9.90
2018-09-06T20:14:07.006Z,9.67
2018-09-06T20:16:35.316Z,8.60
2018-09-06T20:19:03.781Z,10.80
2018-09-06T20:21:32.099Z,9.43
2018-09-06T20:24:00.354Z,8.57
2018-09-06T20:26:28.676Z,8.17
2018-09-06T20:28:57.183Z,8.63
2018-09-06T20:31:25.481Z,8.17
2018-09-06T20:33:53.847Z,9.40
2018-09-06T20:36:22.152Z,9.37
2018-09-06T20:38:50.548Z,9.23
2018-09-06T20:41:18.819Z,10.97
2018-09-06T20:43:47.137Z,12.27
2018-09-06T20:46:15.479Z,11.07
2018-09-06T20:48:43.903Z,11.60
2018-09-06T20:51:12.114Z,11.23
2018-09-06T20:53:40.348Z,11.30
2018-09-06T20:56:08.582Z,11.30
2018-09-06T20:58:37.229Z,10.97
2018-09-06T21:01:05.827Z,12.97
2018-09-06T21:03:33.989Z,12.60
2018-09-06T21:06:02.193Z,12.60
2018-09-06T21:08:30.461Z,12.50
2018-09-06T21:10:58.626Z,13.10
2018-09-06T21:13:27.256Z,13.50
2018-09-06T21:15:55.717Z,12.97
2018-09-06T21:18:24.007Z,13.33
2018-09-06T21:20:52.330Z,13.73
2018-09-06T21:23:20.530Z,12.50
2018-09-06T21:25:48.732Z,14.00
2018-09-06T21:28:17.023Z,12.93
2018-09-06T21:30:45.249Z,13.77
2018-09-06T21:33:13.466Z,12.80
2018-09-06T21:35:41.634Z,12.70
2018-09-06T21:38:09.810Z,13.03
2018-09-06T21:40:37.982Z,13.03
2018-09-06T21:43:06.196Z,13.13
2018-09-06T21:45:34.375Z,12.87
2018-09-06T21:48:02.528Z,12.80
2018-09-06T21:50:30.749Z,13.10
2018-09-06T21:52:58.916Z,12.57
2018-09-06T21:55:27.087Z,13.20
2018-09-06T21:57:55.264Z,13.83
2018-09-06T22:00:23.391Z,13.50
2018-09-06T22:02:56.783Z,13.37
2018-09-06T22:05:25.002Z,12.93
2018-09-06T22:07:53.153Z,13.07
2018-09-06T22:10:22.291Z,12.37
2018-09-06T22:12:51.118Z,12.27
2018-09-06T22:15:19.642Z,12.73
2018-09-06T22:17:47.844Z,11.50
2018-09-06T22:20:16.008Z,14.47
2018-09-06T22:22:44.326Z,13.70
2018-09-06T22:25:12.447Z,13.23
2018-09-06T22:27:40.620Z,12.17
2018-09-06T22:30:08.792Z,12.43
2018-09-06T22:32:37.026Z,12.47
2018-09-06T22:35:05.210Z,12.97
2018-09-06T22:37:33.384Z,13.47
2018-09-06T22:40:01.788Z,12.90
2018-09-06T22:42:29.985Z,11.43
2018-09-06T22:44:58.131Z,12.33
2018-09-06T22:47:26.309Z,12.70
2018-09-06T22:49:54.500Z,12.63
2018-09-06T22:52:22.782Z,12.60
2018-09-06T22:54:50.997Z,14.07
2018-09-06T22:57:19.212Z,13.40
2018-09-06T22:59:47.396Z,12.80
2018-09-06T23:02:15.525Z,12.07
2018-09-06T23:04:43.986Z,12.03
2018-09-06T23:07:12.176Z,11.53
2018-09-06T23:09:40.334Z,11.93
2018-09-06T23:12:08.586Z,12.03
2018-09-06T23:14:36.729Z,12.17
2018-09-06T23:17:04.973Z,11.47
2018-09-06T23:19:33.205Z,10.93
2018-09-06T23:22:01.418Z,12.87
2018-09-06T23:24:29.627Z,12.07
2018-09-06T23:26:57.792Z,12.50
2018-09-06T23:29:25.988Z,11.73
2018-09-06T23:31:54.168Z,13.30
2018-09-06T23:34:22.386Z,13.43
2018-09-06T23:36:50.493Z,13.13
2018-09-06T23:39:18.632Z,14.07
2018-09-06T23:41:47.846Z,13.90
2018-09-06T23:44:16.059Z,13.53
2018-09-06T23:46:44.326Z,12.73
2018-09-06T23:49:12.566Z,12.57
2018-09-06T23:51:40.741Z,12.43
2018-09-06T23:54:08.985Z,13.17
2018-09-06T23:56:37.246Z,13.73
2018-09-06T23:59:05.494Z,14.30
